Nearby METAR Reports

 

KBFI - Seattle/Boeing, Washington, USA
Distance from station: S 10mi, 16km
Updated: Sun, 05-Jul-2020 2:53pm PDT
Mostly cloudy
Mostly cloudy
 Wind from WNW
Wind: WNW 7 mph , 11 km/h
Temperature: 72°F , 22°C
Dew Point: 48°F , 9°C
Humidity: 44%
Barometer: 30.13 inHg , 1020.3 hPa
Clouds: Mostly cloudy
Visibility: 10 miles , 16 km
Cloud details: Few Clouds 3300 ft
Mostly cloudy 5000 ft
2020/07/05 21:53 KBFI 052153Z 29006KT 10SM FEW033 BKN050 22/09 A3013 RMK AO2 SLP203 T02220089
KRNT - Renton, Washington, USA
Distance from station: SSE 14mi, 23km
Updated: Sun, 05-Jul-2020 2:53pm PDT
Partly cloudy
Partly cloudy
 Wind from NNW
Wind: NNW 6 mph , 9 km/h
Temperature: 70°F , 21°C
Dew Point: 48°F , 9°C
Humidity: 46%
Barometer: 30.13 inHg , 1020.3 hPa
Clouds: Partly cloudy
Visibility: 10 miles , 16 km
Cloud details: Partly cloudy 5000 ft
2020/07/05 21:53 KRNT 052153Z 34005KT 10SM SCT050 21/09 A3013 RMK AO2 SLP208 T02110094
 
KPAE - Everett, Washington, USA
Distance from station: N 15mi, 25km
Updated: Sun, 05-Jul-2020 2:53pm PDT
Clear
Clear
 Wind from NW
Wind: NW 8 mph , 13 km/h
Temperature: 70°F , 21°C
Dew Point: 50°F , 10°C
Humidity: 50%
Barometer: 30.16 inHg , 1021.3 hPa
Clouds: Clear
Visibility: 10 miles , 16 km
2020/07/05 21:53 KPAE 052153Z 31007KT 10SM CLR 21/10 A3016 RMK AO2 SLP211 T02060100
KSEA - Seattle/Metro, Washington, USA
Distance from station: S 17mi, 27km
Updated: Sun, 05-Jul-2020 2:53pm PDT
Mostly cloudy
Mostly cloudy
 Wind from W
Wind: W 8 mph , 13 km/h
Temperature: 72°F , 22°C
Dew Point: 52°F , 11°C
Humidity: 50%
Barometer: 30.15 inHg , 1021 hPa
Clouds: Mostly cloudy
Visibility: 10 miles , 16 km
Cloud details: Few Clouds 3500 ft
Mostly cloudy 5000 ft
2020/07/05 21:53 KSEA 052153Z 27007KT 10SM FEW035 BKN050 22/11 A3015 RMK AO2 SLP213 T02170106
 
KPWT - Bremerton Ntnl, Washington, USA
Distance from station: SW 24mi, 39km
Updated: Sun, 05-Jul-2020 2:56pm PDT
Mostly cloudy
Mostly cloudy
 Wind from varies
Wind: varies 5 mph , 7 km/h
Temperature: 70°F , 21°C
Dew Point: 52°F , 11°C
Humidity: 53%
Barometer: 30.14 inHg , 1020.7 hPa
Clouds: Mostly cloudy
Visibility: 10 miles , 16 km
Cloud details: Mostly cloudy 5500 ft
2020/07/05 21:56 KPWT 052156Z AUTO VRB04KT 10SM BKN055 21/11 A3014 RMK AO2 SLP210 T02060106
KTIW - Tacoma, Washington, USA
Distance from station: SSW 32mi, 52km
Updated: Sun, 05-Jul-2020 2:53pm PDT
Partly cloudy
Partly cloudy
 Wind from varies
Wind: varies 7 mph , 11 km/h
Temperature: 72°F , 22°C
Dew Point: 48°F , 9°C
Humidity: 44%
Barometer: 30.14 inHg , 1020.7 hPa
Clouds: Partly cloudy
Visibility: 10 miles , 16 km
Cloud details: Partly cloudy 3700 ft
Partly cloudy 5500 ft
2020/07/05 21:53 KTIW 052153Z VRB06KT 10SM SCT037 SCT055 22/09 A3014 RMK AO2 SLP204 T02220094 $
 
KAWO - Arlington Muni, Washington, USA
Distance from station: N 33mi, 54km
Updated: Sun, 05-Jul-2020 2:56pm PDT
Mostly cloudy
Mostly cloudy
 Wind from NW
Wind: NW 13 mph , 20 km/h
Temperature: 70°F , 21°C
Dew Point: 55°F , 13°C
Humidity: 60%
Barometer: 30.14 inHg , 1020.7 hPa
Clouds: Mostly cloudy
Visibility: 10 miles , 16 km
Cloud details: Mostly cloudy 4300 ft
2020/07/05 21:56 KAWO 052156Z AUTO 32011KT 10SM BKN043 21/13 A3014 RMK AO2 SLP209 T02110128
KTCM - Tacoma/Mc Chord, Washington, USA
Distance from station: S 41mi, 65km
Updated: Sun, 05-Jul-2020 2:58pm PDT
Overcast
Overcast
 Wind from W
Wind: W 5 mph , 7 km/h
Temperature: 72°F , 22°C
Dew Point: 48°F , 9°C
Humidity: 44%
Barometer: 30.14 inHg , 1020.7 hPa
Clouds: Overcast
Visibility: 10 miles , 16 km
Cloud details: Overcast 5500 ft
2020/07/05 21:58 KTCM 052158Z AUTO 26004KT 10SM OVC055 22/09 A3014 RMK AO2 SLP209 T02160088 $
 
KPLU - Puyallup/Thun, Washington, USA
Distance from station: S 41mi, 66km
Updated: Sun, 05-Jul-2020 3:15pm PDT
Mostly cloudy
Mostly cloudy
 Wind from calm
Wind: Calm
Temperature: 70°F , 21°C
Dew Point: 50°F , 10°C
Humidity: 50%
Barometer: 30.14 inHg , 1020.7 hPa
Clouds: Mostly cloudy
Visibility: 10 miles , 16 km
Cloud details: Partly cloudy 4700 ft
Mostly cloudy 5500 ft
2020/07/05 22:15 KPLU 052215Z AUTO 00000KT 10SM SCT047 BKN055 21/10 A3014 RMK AO2
KGRF - Fort Lewis/Gray, Washington, USA
Distance from station: SSW 45mi, 72km
Updated: Sun, 05-Jul-2020 2:58pm PDT
Few Clouds
Few Clouds
 Wind from W
Wind: W 5 mph , 7 km/h
Temperature: 72°F , 22°C
Dew Point: 57°F , 14°C
Humidity: 61%
Barometer: 30.14 inHg , 1020.7 hPa
Clouds: Few Clouds
Visibility: 10 miles , 16 km
Cloud details: Few Clouds 6000 ft
Few Clouds 20000 ft
2020/07/05 21:58 KGRF 052158Z AUTO 27004KT 10SM FEW060 FEW200 22/14 A3014 RMK AO2 SLP210 T02220141 $
 
KNUW - Whidbey Is. Nas, Washington, USA
Distance from station: NNW 48mi, 77km
Updated: Sun, 05-Jul-2020 2:55pm PDT
Partly cloudy
Partly cloudy
 Wind from W
Wind: W 8 mph , 13 km/h
Temperature: 61°F , 16°C
Dew Point: 52°F , 11°C
Humidity: 72%
Barometer: 30.19 inHg , 1022.4 hPa
Clouds: Partly cloudy
Visibility: 10 miles , 16 km
Cloud details: Few Clouds 3000 ft
Partly cloudy 5000 ft
2020/07/05 21:55 KNUW 052155Z 27007KT 10SM FEW030 SCT050 16/11 A3019 RMK AO2 SLP223 T01560106
KSHN - Shelton, Washington, USA
Distance from station: SW 50mi, 80km
Updated: Sun, 05-Jul-2020 2:53pm PDT
Mostly cloudy
Mostly cloudy
 Wind from W
Wind: W 9 mph , 15 km/h
Temperature: 72°F , 22°C
Dew Point: 50°F , 10°C
Humidity: 47%
Barometer: 30.12 inHg , 1020 hPa
Clouds: Mostly cloudy
Visibility: 10 miles , 16 km
Cloud details: Mostly cloudy 6000 ft
2020/07/05 21:53 KSHN 052153Z AUTO 26008KT 10SM BKN060 22/10 A3012 RMK AO2 SLP200 T02170100